createdAt,value
2018-05-11T00:00:40.522Z,7.73
2018-05-11T00:03:10.537Z,7.57
2018-05-11T00:05:39.733Z,8.10
2018-05-11T00:08:09.473Z,7.43
2018-05-11T00:10:38.421Z,7.17
2018-05-11T00:13:07.308Z,9.17
2018-05-11T00:15:36.511Z,6.10
2018-05-11T00:18:05.717Z,7.53
2018-05-11T00:20:34.900Z,6.63
2018-05-11T00:23:04.110Z,7.90
2018-05-11T00:25:33.306Z,8.70
2018-05-11T00:28:02.511Z,7.00
2018-05-11T00:30:30.964Z,8.20
2018-05-11T00:33:00.172Z,8.77
2018-05-11T00:35:29.398Z,10.20
2018-05-11T00:37:58.024Z,8.63
2018-05-11T00:40:26.457Z,6.83
2018-05-11T00:42:54.907Z,6.77
2018-05-11T00:45:24.101Z,5.53
2018-05-11T00:47:53.302Z,8.57
2018-05-11T00:50:22.504Z,7.23
2018-05-11T00:52:50.930Z,8.60
2018-05-11T00:55:30.464Z,7.13
2018-05-11T00:57:58.895Z,9.73
2018-05-11T01:00:28.085Z,6.97
2018-05-11T01:02:57.310Z,8.63
2018-05-11T01:05:25.745Z,7.93
2018-05-11T01:07:54.168Z,8.70
2018-05-11T01:10:22.605Z,9.00
2018-05-11T01:12:51.131Z,6.30
2018-05-11T01:15:19.222Z,7.73
2018-05-11T01:17:47.657Z,7.87
2018-05-11T01:20:16.217Z,7.27
2018-05-11T01:22:44.715Z,9.53
2018-05-11T01:25:13.904Z,7.23
2018-05-11T01:27:43.105Z,7.93
2018-05-11T01:30:11.973Z,6.50
2018-05-11T01:32:40.395Z,8.53
2018-05-11T01:35:09.203Z,6.00
2018-05-11T01:37:38.408Z,7.10
2018-05-11T01:40:06.514Z,6.03
2018-05-11T01:42:35.004Z,6.10
2018-05-11T01:45:03.880Z,9.70
2018-05-11T01:47:32.337Z,8.20
2018-05-11T01:50:00.780Z,9.13
2018-05-11T01:52:29.210Z,7.03
2018-05-11T01:54:57.655Z,8.47
2018-05-11T01:57:26.092Z,8.10
2018-05-11T01:59:55.288Z,10.27
2018-05-11T02:02:24.489Z,7.80
2018-05-11T02:04:53.682Z,7.20
2018-05-11T02:07:22.871Z,7.97
2018-05-11T02:09:52.058Z,7.43
2018-05-11T02:12:20.514Z,9.33
2018-05-11T02:14:48.957Z,7.43
2018-05-11T02:17:17.396Z,6.27
2018-05-11T02:19:45.816Z,8.10
2018-05-11T02:22:14.250Z,8.93
2018-05-11T02:24:42.676Z,8.53
2018-05-11T02:27:11.113Z,8.03
2018-05-11T02:29:40.309Z,7.10
2018-05-11T02:32:10.360Z,6.27
2018-05-11T02:34:39.591Z,9.27
2018-05-11T02:37:08.613Z,10.57
2018-05-11T02:39:37.809Z,7.73
2018-05-11T02:42:07.152Z,7.80
2018-05-11T02:44:35.599Z,9.93
2018-05-11T02:47:04.790Z,8.13
2018-05-11T02:49:33.988Z,9.17
2018-05-11T02:52:03.190Z,9.20
2018-05-11T02:54:32.589Z,8.40
2018-05-11T02:57:01.814Z,7.70
2018-05-11T02:59:30.245Z,7.33
2018-05-11T03:01:58.717Z,7.00
2018-05-11T03:04:27.148Z,11.13
2018-05-11T03:06:55.576Z,8.27
2018-05-11T03:09:23.667Z,8.57
2018-05-11T03:11:52.847Z,9.27
2018-05-11T03:14:21.285Z,7.27
2018-05-11T03:16:49.713Z,7.27
2018-05-11T03:19:18.928Z,8.83
2018-05-11T03:21:49.128Z,8.97
2018-05-11T03:24:17.561Z,10.30
2018-05-11T03:26:45.995Z,9.30
2018-05-11T03:29:15.198Z,8.03
2018-05-11T03:31:44.405Z,8.83
2018-05-11T03:34:12.842Z,12.33
2018-05-11T03:36:41.288Z,8.53
2018-05-11T03:39:10.677Z,7.37
2018-05-11T03:41:39.788Z,10.87
2018-05-11T03:44:08.217Z,7.53
2018-05-11T03:46:38.107Z,10.30
2018-05-11T03:49:05.878Z,10.57
2018-05-11T03:51:34.341Z,9.70
2018-05-11T03:54:02.772Z,8.27
2018-05-11T03:56:31.202Z,8.07
2018-05-11T03:58:59.636Z,9.17
2018-05-11T04:04:42.489Z,7.40
2018-05-11T04:07:22.001Z,6.57
2018-05-11T04:09:50.205Z,7.47
2018-05-11T04:12:18.632Z,8.80
2018-05-11T04:14:47.834Z,10.53
2018-05-11T04:17:17.015Z,9.10
2018-05-11T04:19:45.441Z,9.60
2018-05-11T04:22:13.912Z,7.37
2018-05-11T04:24:42.339Z,8.47
2018-05-11T04:27:10.798Z,7.97
2018-05-11T04:29:40.006Z,8.13
2018-05-11T04:32:09.368Z,7.20
2018-05-11T04:34:37.836Z,8.60
2018-05-11T04:37:06.273Z,10.00
2018-05-11T04:39:34.709Z,7.20
2018-05-11T04:42:03.140Z,7.60
2018-05-11T04:44:31.581Z,7.57
2018-05-11T04:47:00.013Z,7.73
2018-05-11T04:49:29.223Z,8.57
2018-05-11T04:51:57.647Z,8.00
2018-05-11T04:54:26.506Z,7.80
2018-05-11T04:56:54.948Z,7.80
2018-05-11T04:59:24.176Z,8.13
2018-05-11T05:01:52.601Z,8.70
2018-05-11T05:04:21.029Z,10.17
2018-05-11T05:06:49.486Z,11.37
2018-05-11T05:09:18.683Z,8.77
2018-05-11T05:11:47.881Z,7.70
2018-05-11T05:14:17.069Z,8.83
2018-05-11T05:16:46.274Z,7.27
2018-05-11T05:19:15.329Z,8.03
2018-05-11T05:21:43.860Z,8.33
2018-05-11T05:24:12.323Z,7.33
2018-05-11T05:26:41.529Z,9.37
2018-05-11T05:29:10.721Z,11.03
2018-05-11T05:31:40.401Z,11.23
2018-05-11T05:34:10.283Z,7.10
2018-05-11T05:36:38.852Z,8.57
2018-05-11T05:39:07.490Z,8.43
2018-05-11T05:41:36.834Z,7.93
2018-05-11T05:44:05.316Z,7.57
2018-05-11T05:46:33.778Z,11.73
2018-05-11T05:49:02.290Z,12.20
2018-05-11T05:51:30.785Z,9.97
2018-05-11T05:54:00.218Z,10.33
2018-05-11T05:56:29.470Z,7.87
2018-05-11T05:58:57.956Z,6.37
2018-05-11T06:01:26.416Z,8.20
2018-05-11T06:03:54.863Z,9.07
2018-05-11T06:06:24.092Z,10.83
2018-05-11T06:08:52.564Z,7.67
2018-05-11T06:11:21.052Z,8.60
2018-05-11T06:13:50.516Z,9.90
2018-05-11T06:16:18.982Z,9.03
2018-05-11T06:18:48.249Z,8.73
2018-05-11T06:21:16.698Z,10.67
2018-05-11T06:23:46.172Z,10.90
2018-05-11T06:26:15.410Z,9.33
2018-05-11T06:28:43.856Z,9.90
2018-05-11T06:31:13.096Z,11.57
2018-05-11T06:33:42.550Z,18.30
2018-05-11T06:36:11.766Z,14.37
2018-05-11T06:38:40.235Z,16.27
2018-05-11T06:41:08.696Z,20.00
2018-05-11T06:43:39.058Z,25.87
2018-05-11T06:46:07.422Z,22.27
2018-05-11T06:48:36.002Z,28.03
2018-05-11T06:51:04.482Z,23.93
2018-05-11T06:53:33.985Z,30.40
2018-05-11T06:56:02.451Z,29.23
2018-05-11T06:58:31.686Z,24.30
2018-05-11T07:01:00.161Z,27.23
2018-05-11T07:03:28.643Z,28.27
2018-05-11T07:05:57.102Z,27.07
2018-05-11T07:08:25.572Z,33.97
2018-05-11T07:10:54.047Z,30.90
2018-05-11T07:13:23.267Z,30.77
2018-05-11T07:15:51.751Z,31.43
2018-05-11T07:18:20.233Z,34.83
2018-05-11T07:20:48.738Z,33.13
2018-05-11T07:23:17.208Z,32.97
2018-05-11T07:25:45.686Z,33.87
2018-05-11T07:28:15.156Z,35.10
2018-05-11T07:30:43.628Z,39.73
2018-05-11T07:33:12.858Z,33.83
2018-05-11T07:35:41.344Z,37.00
2018-05-11T07:38:09.806Z,32.13
2018-05-11T07:40:38.295Z,35.57
2018-05-11T07:43:06.838Z,35.97
2018-05-11T07:45:36.172Z,32.83
2018-05-11T07:48:04.294Z,35.83
2018-05-11T07:50:32.757Z,33.57
2018-05-11T07:53:00.900Z,32.50
2018-05-11T07:55:29.369Z,35.20
2018-05-11T07:57:57.840Z,32.77
2018-05-11T08:00:26.306Z,35.57
2018-05-11T08:02:55.547Z,36.23
2018-05-11T08:05:24.048Z,34.27
2018-05-11T08:07:52.518Z,33.33
2018-05-11T08:10:20.984Z,30.50
2018-05-11T08:12:49.452Z,31.17
2018-05-11T08:15:17.927Z,32.90
2018-05-11T08:17:46.408Z,33.03
2018-05-11T08:20:14.866Z,28.77
2018-05-11T08:22:43.397Z,34.17
2018-05-11T08:25:11.523Z,33.03
2018-05-11T08:27:40.010Z,35.00
2018-05-11T08:30:08.490Z,35.20
2018-05-11T08:32:37.009Z,31.73
2018-05-11T08:35:05.526Z,31.23
2018-05-11T08:37:34.759Z,31.37
2018-05-11T08:40:03.246Z,35.67
2018-05-11T08:42:31.744Z,36.50
2018-05-11T08:45:00.213Z,33.67
2018-05-11T08:47:28.694Z,33.57
2018-05-11T08:49:57.187Z,33.57
2018-05-11T08:52:25.655Z,34.20
2018-05-11T08:54:54.092Z,30.93
2018-05-11T08:57:22.569Z,30.87
2018-05-11T08:59:51.025Z,32.90
2018-05-11T09:02:20.304Z,35.90
2018-05-11T09:04:48.795Z,34.70
2018-05-11T09:07:17.289Z,35.57
2018-05-11T09:09:46.523Z,30.17
2018-05-11T09:12:14.992Z,29.67
2018-05-11T09:14:43.487Z,31.93
2018-05-11T09:17:11.962Z,29.97
2018-05-11T09:19:40.471Z,31.20
2018-05-11T09:22:08.976Z,32.97
2018-05-11T09:24:37.586Z,32.30
2018-05-11T09:27:06.102Z,30.80
2018-05-11T09:29:34.548Z,31.93
2018-05-11T09:32:03.065Z,29.10
2018-05-11T09:34:31.562Z,26.83
2018-05-11T09:37:00.026Z,30.10
2018-05-11T09:39:28.591Z,30.73
2018-05-11T09:41:57.187Z,32.47
2018-05-11T09:44:25.707Z,29.50
2018-05-11T09:46:54.937Z,34.10
2018-05-11T09:49:23.440Z,31.57
2018-05-11T09:51:52.513Z,42.93
2018-05-11T09:54:20.971Z,36.33
2018-05-11T09:56:50.200Z,32.27
2018-05-11T09:59:18.686Z,35.70
2018-05-11T10:01:47.151Z,32.10
2018-05-11T10:04:16.562Z,31.73
2018-05-11T10:06:45.044Z,35.13
2018-05-11T10:09:13.523Z,35.67
2018-05-11T10:11:41.617Z,31.47
2018-05-11T10:14:10.074Z,30.23
2018-05-11T10:16:38.537Z,31.23
2018-05-11T10:19:07.019Z,29.10
2018-05-11T10:21:35.478Z,32.80
2018-05-11T10:24:04.704Z,28.60
2018-05-11T10:26:33.177Z,30.93
2018-05-11T10:29:01.625Z,29.77
2018-05-11T10:31:30.000Z,29.67
2018-05-11T10:33:58.411Z,31.80
2018-05-11T10:36:26.843Z,30.90
2018-05-11T10:38:55.290Z,28.50
2018-05-11T10:41:23.720Z,28.80
2018-05-11T10:43:52.931Z,27.77
2018-05-11T10:46:21.433Z,27.57
2018-05-11T10:48:49.891Z,30.10
2018-05-11T10:51:18.600Z,28.83
2018-05-11T10:53:47.040Z,29.53
2018-05-11T10:56:16.262Z,31.77
2018-05-11T10:58:44.696Z,25.73
2018-05-11T11:01:13.229Z,31.17
2018-05-11T11:03:41.661Z,28.50
2018-05-11T11:06:10.985Z,29.37
2018-05-11T11:08:40.002Z,28.23
2018-05-11T11:11:08.448Z,29.53
2018-05-11T11:13:38.209Z,28.10
2018-05-11T11:16:06.880Z,28.20
2018-05-11T11:18:35.314Z,27.83
2018-05-11T11:21:04.515Z,26.23
2018-05-11T11:23:33.730Z,27.90
2018-05-11T11:26:02.297Z,25.17
2018-05-11T11:28:30.845Z,30.57
2018-05-11T11:30:59.282Z,26.23
2018-05-11T11:33:27.729Z,28.20
2018-05-11T11:35:56.955Z,29.20
2018-05-11T11:38:25.395Z,24.13
2018-05-11T11:40:53.611Z,27.13
2018-05-11T11:43:21.717Z,27.33
2018-05-11T11:45:50.140Z,28.57
2018-05-11T11:48:18.599Z,26.37
2018-05-11T11:50:47.797Z,27.47
2018-05-11T11:53:16.984Z,26.83
2018-05-11T11:55:45.451Z,29.00
2018-05-11T11:58:13.549Z,27.97
2018-05-11T12:00:42.758Z,26.70
2018-05-11T12:03:11.187Z,27.80
2018-05-11T12:05:39.641Z,30.93
2018-05-11T12:08:08.892Z,27.97
2018-05-11T12:10:38.147Z,28.53
2018-05-11T12:13:06.576Z,30.93
2018-05-11T12:15:35.788Z,28.03
2018-05-11T12:18:04.229Z,27.37
2018-05-11T12:20:32.671Z,28.83
2018-05-11T12:23:01.091Z,28.63
2018-05-11T12:25:29.533Z,27.83
2018-05-11T12:27:57.972Z,30.07
2018-05-11T12:30:27.157Z,26.30
2018-05-11T12:32:56.368Z,28.30
2018-05-11T12:35:25.565Z,30.93
2018-05-11T12:37:54.014Z,28.53
2018-05-11T12:40:22.470Z,26.50
2018-05-11T12:42:50.912Z,27.10
2018-05-11T12:45:19.379Z,29.33
2018-05-11T12:47:48.578Z,35.77
2018-05-11T12:50:17.016Z,27.33
2018-05-11T12:52:45.488Z,25.37
2018-05-11T12:55:14.099Z,29.77
2018-05-11T12:57:43.310Z,27.83
2018-05-11T13:00:12.189Z,31.07
2018-05-11T13:02:41.417Z,27.97
2018-05-11T13:05:10.220Z,26.13
2018-05-11T13:07:38.648Z,27.37
2018-05-11T13:10:07.865Z,31.47
2018-05-11T13:12:37.053Z,26.80
2018-05-11T13:15:06.281Z,27.83
2018-05-11T13:17:34.717Z,26.10
2018-05-11T13:20:03.584Z,30.13
2018-05-11T13:22:32.035Z,23.80
2018-05-11T13:25:00.487Z,28.53
2018-05-11T13:27:28.920Z,24.57
2018-05-11T13:29:57.355Z,29.13
2018-05-11T13:32:25.796Z,26.47
2018-05-11T13:34:55.000Z,27.90
2018-05-11T13:37:24.229Z,27.90
2018-05-11T13:39:52.664Z,26.63
2018-05-11T13:42:21.096Z,29.20
2018-05-11T13:44:50.537Z,25.57
2018-05-11T13:47:18.984Z,26.10
2018-05-11T13:49:47.420Z,27.43
2018-05-11T13:52:16.631Z,26.30
2018-05-11T13:54:45.056Z,31.20
2018-05-11T13:57:13.512Z,28.87
2018-05-11T13:59:41.944Z,25.80
2018-05-11T14:02:11.145Z,26.93
2018-05-11T14:04:40.448Z,28.17
2018-05-11T14:07:09.750Z,29.70
2018-05-11T14:09:39.657Z,28.80
2018-05-11T14:12:09.358Z,28.47
2018-05-11T14:14:38.559Z,29.67
2018-05-11T14:17:08.297Z,30.60
2018-05-11T14:19:36.740Z,26.77
2018-05-11T14:22:05.942Z,27.40
2018-05-11T14:24:35.201Z,27.80
2018-05-11T14:27:03.620Z,32.17
2018-05-11T14:29:32.821Z,29.20
2018-05-11T14:32:02.134Z,27.70
2018-05-11T14:34:31.480Z,30.20
2018-05-11T14:36:59.916Z,31.20
2018-05-11T14:39:28.403Z,32.20
2018-05-11T14:41:56.848Z,30.70
2018-05-11T14:44:26.063Z,29.90
2018-05-11T14:46:54.508Z,32.60
2018-05-11T14:49:22.942Z,29.50
2018-05-11T14:51:51.053Z,30.80
2018-05-11T14:54:19.496Z,30.33
2018-05-11T14:56:47.597Z,29.03
2018-05-11T14:59:16.042Z,34.30
2018-05-11T15:01:44.490Z,30.67
2018-05-11T15:04:13.788Z,30.70
2018-05-11T15:06:42.350Z,28.20
2018-05-11T15:09:10.871Z,26.37
2018-05-11T15:11:40.140Z,26.67
2018-05-11T15:14:10.076Z,29.90
2018-05-11T15:16:39.141Z,32.67
2018-05-11T15:19:08.741Z,30.50
2018-05-11T15:21:37.194Z,30.37
2018-05-11T15:24:06.945Z,29.27
2018-05-11T15:26:36.161Z,28.37
2018-05-11T15:29:04.604Z,29.23
2018-05-11T15:31:33.053Z,33.03
2018-05-11T15:34:01.494Z,27.70
2018-05-11T15:36:29.943Z,28.97
2018-05-11T15:38:59.164Z,27.37
2018-05-11T15:41:27.602Z,25.93
2018-05-11T15:43:56.050Z,32.00
2018-05-11T15:46:24.470Z,26.33
2018-05-11T15:48:52.951Z,27.90
2018-05-11T15:51:21.409Z,28.70
2018-05-11T15:53:49.839Z,33.97
2018-05-11T15:56:18.283Z,34.47
2018-05-11T15:58:46.715Z,29.63
2018-05-11T16:01:15.183Z,26.87
2018-05-11T16:03:43.614Z,26.70
2018-05-11T16:06:12.048Z,29.67
2018-05-11T16:08:40.500Z,28.83
2018-05-11T16:11:09.806Z,29.73
2018-05-11T16:13:39.216Z,29.40
2018-05-11T16:16:08.250Z,28.07
2018-05-11T16:18:36.686Z,31.07
2018-05-11T16:21:05.125Z,30.20
2018-05-11T16:23:33.558Z,30.30
2018-05-11T16:26:01.354Z,31.40
2018-05-11T16:28:29.804Z,30.77
2018-05-11T16:30:58.244Z,31.20
2018-05-11T16:33:27.448Z,30.07
2018-05-11T16:35:56.643Z,33.27
2018-05-11T16:38:25.862Z,27.70
2018-05-11T16:40:54.304Z,29.77
2018-05-11T16:43:23.506Z,29.70
2018-05-11T16:45:52.708Z,27.20
2018-05-11T16:48:21.935Z,30.83
2018-05-11T16:50:50.137Z,29.67
2018-05-11T16:53:18.576Z,32.30
2018-05-11T16:55:47.011Z,29.93
2018-05-11T16:58:15.428Z,30.63
2018-05-11T17:00:43.867Z,27.90
2018-05-11T17:03:12.297Z,31.80
2018-05-11T17:05:40.741Z,30.97
2018-05-11T17:08:09.948Z,30.50
2018-05-11T17:10:39.164Z,28.97
2018-05-11T17:13:07.757Z,29.93
2018-05-11T17:15:36.208Z,31.03
2018-05-11T17:18:05.426Z,30.20
2018-05-11T17:20:33.868Z,28.30
2018-05-11T17:23:02.309Z,29.20
2018-05-11T17:25:30.765Z,27.57
2018-05-11T17:27:58.861Z,32.60
2018-05-11T17:30:27.292Z,28.07
2018-05-11T17:32:56.255Z,29.63
2018-05-11T17:35:24.472Z,25.10
2018-05-11T17:37:53.856Z,32.33
2018-05-11T17:40:23.051Z,32.17
2018-05-11T17:42:52.251Z,29.23
2018-05-11T17:45:21.466Z,32.57
2018-05-11T17:47:49.898Z,31.73
2018-05-11T17:50:18.342Z,28.97
2018-05-11T17:52:46.802Z,28.43
2018-05-11T17:55:15.245Z,30.97
2018-05-11T17:57:43.677Z,31.53
2018-05-11T18:00:12.111Z,30.43
2018-05-11T18:02:41.315Z,31.70
2018-05-11T18:05:10.124Z,31.20
2018-05-11T18:07:39.132Z,31.60
2018-05-11T18:10:07.869Z,30.57
2018-05-11T18:12:36.428Z,31.20
2018-05-11T18:15:04.518Z,32.60
2018-05-11T18:17:33.732Z,31.33
2018-05-11T18:20:02.932Z,33.47
2018-05-11T18:22:31.396Z,30.43
2018-05-11T18:25:00.600Z,29.40
2018-05-11T18:27:29.806Z,29.80
2018-05-11T18:29:58.248Z,34.77
2018-05-11T18:32:26.690Z,32.77
2018-05-11T18:34:55.117Z,31.70
2018-05-11T18:37:23.550Z,43.00
2018-05-11T18:39:51.979Z,29.17
2018-05-11T18:42:21.180Z,31.93
2018-05-11T18:44:50.388Z,31.73
2018-05-11T18:47:18.828Z,33.37
2018-05-11T18:49:47.261Z,29.27
2018-05-11T18:52:15.712Z,31.27
2018-05-11T18:54:44.989Z,32.60
2018-05-11T18:57:13.536Z,29.03
2018-05-11T18:59:42.003Z,30.97
2018-05-11T19:02:11.203Z,29.83
2018-05-11T19:04:40.381Z,28.93
2018-05-11T19:07:08.833Z,31.13
2018-05-11T19:09:38.814Z,36.00
2018-05-11T19:12:07.236Z,32.00
2018-05-11T19:14:36.469Z,31.90
2018-05-11T19:17:04.572Z,30.43
2018-05-11T19:19:33.024Z,31.03
2018-05-11T19:22:01.130Z,31.83
2018-05-11T19:24:29.241Z,27.43
2018-05-11T19:26:57.667Z,30.37
2018-05-11T19:29:26.107Z,30.07
2018-05-11T19:31:54.541Z,30.13
2018-05-11T19:34:23.004Z,31.53
2018-05-11T19:36:51.437Z,32.57
2018-05-11T19:39:19.885Z,33.67
2018-05-11T19:41:49.088Z,30.90
2018-05-11T19:44:18.284Z,37.70
2018-05-11T19:46:47.484Z,28.50
2018-05-11T19:49:16.701Z,33.30
2018-05-11T19:51:45.134Z,35.50
2018-05-11T19:54:13.571Z,35.33
2018-05-11T19:56:42.021Z,32.50
2018-05-11T19:59:11.222Z,35.70
2018-05-11T20:01:40.608Z,31.43
2018-05-11T20:04:10.094Z,33.27
2018-05-11T20:12:08.875Z,33.17
2018-05-11T20:14:37.305Z,32.63
2018-05-11T20:17:05.769Z,32.13
2018-05-11T20:19:34.207Z,31.63
2018-05-11T20:22:02.693Z,30.93
2018-05-11T20:24:31.129Z,33.77
2018-05-11T20:27:00.320Z,38.60
2018-05-11T20:29:28.766Z,34.63
2018-05-11T20:31:57.209Z,33.87
2018-05-11T20:34:25.643Z,36.30
2018-05-11T20:36:54.107Z,34.37
2018-05-11T20:42:18.743Z,37.00
2018-05-11T20:44:47.178Z,37.13
2018-05-11T20:47:15.598Z,37.43
2018-05-11T20:49:44.055Z,35.87
2018-05-11T20:52:12.470Z,36.83
2018-05-11T20:54:40.897Z,37.53
2018-05-11T20:57:09.337Z,39.63
2018-05-11T20:59:37.782Z,40.43
2018-05-11T21:02:07.004Z,38.33
2018-05-11T21:04:35.440Z,41.90
2018-05-11T21:07:03.635Z,41.17
2018-05-11T21:09:32.831Z,47.30
2018-05-11T21:12:02.054Z,50.37
2018-05-11T21:14:30.642Z,45.00
2018-05-11T21:16:59.169Z,41.80
2018-05-11T21:19:27.624Z,48.77
2018-05-11T21:21:56.081Z,40.27
2018-05-11T21:24:24.540Z,42.33
2018-05-11T21:26:52.971Z,43.83
2018-05-11T21:29:21.417Z,42.07
2018-05-11T21:31:49.854Z,38.43
2018-05-11T21:34:19.060Z,40.47
2018-05-11T21:36:48.402Z,40.07
2018-05-11T21:39:17.766Z,39.87
2018-05-11T21:41:46.320Z,39.60
2018-05-11T21:44:14.812Z,40.80
2018-05-11T21:46:44.016Z,41.60
2018-05-11T21:49:13.218Z,42.23
2018-05-11T21:51:42.424Z,40.20
2018-05-11T21:54:10.857Z,41.97
2018-05-11T21:56:39.302Z,40.90
2018-05-11T21:59:07.768Z,38.60
2018-05-11T22:01:35.862Z,41.83
2018-05-11T22:04:04.293Z,40.00
2018-05-11T22:06:33.502Z,43.43
2018-05-11T22:09:01.984Z,46.13
2018-05-11T22:11:30.419Z,40.47
2018-05-11T22:13:58.861Z,44.93
2018-05-11T22:16:27.304Z,40.77
2018-05-11T22:18:56.511Z,41.30
2018-05-11T22:21:24.944Z,36.27
2018-05-11T22:23:53.388Z,39.67
2018-05-11T22:26:21.826Z,38.27
2018-05-11T22:28:51.086Z,40.93
2018-05-11T22:31:19.513Z,41.73
2018-05-11T22:33:48.708Z,37.90
2018-05-11T22:36:18.731Z,40.03
2018-05-11T22:38:48.803Z,38.87
2018-05-11T22:41:18.048Z,41.67
2018-05-11T22:43:46.484Z,39.07
2018-05-11T22:46:14.957Z,38.73
2018-05-11T22:48:43.390Z,39.80
2018-05-11T22:51:11.832Z,38.10
2018-05-11T22:53:40.263Z,38.10
2018-05-11T22:56:08.714Z,39.20
2018-05-11T22:58:37.902Z,36.87
2018-05-11T23:01:07.096Z,34.20
2018-05-11T23:03:36.348Z,39.63
2018-05-11T23:06:05.700Z,35.37
2018-05-11T23:08:34.905Z,36.33
2018-05-11T23:11:04.100Z,37.40
2018-05-11T23:13:33.305Z,38.30
2018-05-11T23:16:01.748Z,34.27
2018-05-11T23:18:30.192Z,33.93
2018-05-11T23:20:58.623Z,37.97
2018-05-11T23:23:27.819Z,37.30
2018-05-11T23:25:57.025Z,36.10
2018-05-11T23:28:25.888Z,32.87
2018-05-11T23:30:54.351Z,36.60
2018-05-11T23:33:22.785Z,35.03
2018-05-11T23:35:51.230Z,36.73
2018-05-11T23:38:19.669Z,38.93
2018-05-11T23:40:48.952Z,36.47
2018-05-11T23:43:17.385Z,44.23
2018-05-11T23:45:46.572Z,35.77
2018-05-11T23:48:15.013Z,45.00
2018-05-11T23:50:43.448Z,37.30
2018-05-11T23:53:12.648Z,38.00
2018-05-11T23:55:41.844Z,36.27
2018-05-11T23:58:11.083Z,39.63
